createdAt,value
2019-03-29T07:29:09.345Z,39.20
2019-03-29T07:31:38.131Z,39.00
2019-03-29T07:34:07.062Z,38.60
2019-03-29T07:36:36.426Z,38.80
2019-03-29T07:39:06.284Z,38.40
2019-03-29T07:41:35.237Z,38.30
2019-03-29T07:44:04.354Z,37.80
2019-03-29T07:46:37.421Z,38.30
2019-03-29T07:49:08.265Z,38.40
2019-03-29T07:51:39.189Z,38.20
2019-03-29T07:54:08.609Z,38.40
2019-03-29T07:56:38.052Z,38.20
2019-03-29T07:59:08.613Z,37.90
2019-03-29T08:01:40.089Z,38.20
2019-03-29T08:04:10.205Z,38.30
2019-03-29T08:06:46.641Z,38.40
2019-03-29T08:09:22.130Z,38.10
2019-03-29T08:11:46.834Z,38.10
2019-03-29T08:14:15.985Z,38.80
2019-03-29T08:16:45.261Z,38.30
2019-03-29T08:19:14.624Z,38.20
2019-03-29T08:21:43.900Z,38.10
2019-03-29T08:24:13.189Z,37.90
2019-03-29T08:26:45.315Z,37.90
2019-03-29T08:29:14.550Z,37.90
2019-03-29T08:31:46.132Z,37.70
2019-03-29T08:34:15.513Z,38.00
2019-03-29T08:36:44.545Z,37.70
2019-03-29T08:39:27.269Z,37.50
2019-03-29T08:41:54.488Z,37.50
2019-03-29T08:44:16.867Z,37.60
2019-03-29T08:46:47.439Z,38.50
2019-03-29T08:49:17.080Z,38.50
2019-03-29T08:51:46.538Z,38.60
2019-03-29T08:54:19.326Z,38.40
2019-03-29T08:56:48.562Z,38.40
2019-03-29T08:59:17.736Z,38.20
2019-03-29T09:01:47.194Z,38.00
2019-03-29T09:04:16.523Z,38.00
2019-03-29T09:06:53.182Z,38.20
2019-03-29T09:09:16.758Z,37.80
2019-03-29T09:11:47.299Z,38.00
2019-03-29T09:14:16.108Z,38.10
2019-03-29T09:16:45.917Z,37.30
2019-03-29T09:19:14.985Z,37.30
2019-03-29T09:21:46.947Z,37.40
2019-03-29T09:24:21.851Z,37.80
2019-03-29T09:26:47.186Z,37.10
2019-03-29T09:29:16.591Z,37.00
2019-03-29T09:31:47.418Z,37.20
2019-03-29T09:34:17.295Z,37.40
2019-03-29T09:36:46.228Z,37.00
2019-03-29T09:39:15.992Z,37.40
2019-03-29T09:41:45.087Z,37.20
2019-03-29T09:44:16.229Z,36.90
2019-03-29T09:46:47.225Z,37.10
2019-03-29T09:49:16.026Z,37.00
2019-03-29T09:51:44.994Z,36.80
2019-03-29T09:54:14.532Z,37.10
2019-03-29T09:56:48.209Z,36.80
2019-03-29T09:59:16.749Z,36.70
2019-03-29T10:01:45.656Z,36.90
2019-03-29T10:04:15.001Z,36.90
2019-03-29T10:06:44.299Z,36.70
2019-03-29T10:09:14.102Z,37.00
2019-03-29T10:11:45.016Z,37.00
2019-03-29T10:14:15.744Z,37.20
2019-03-29T10:16:44.741Z,37.00
2019-03-29T10:19:13.634Z,36.80
2019-03-29T10:21:44.062Z,36.80
2019-03-29T10:24:13.185Z,36.90
2019-03-29T10:26:41.855Z,37.10
2019-03-29T10:29:11.278Z,37.10
2019-03-29T10:31:42.251Z,36.90
2019-03-29T10:34:13.643Z,37.00
2019-03-29T10:36:42.513Z,36.70
2019-03-29T10:39:13.378Z,35.90
2019-03-29T10:41:43.477Z,37.20
2019-03-29T10:44:12.569Z,36.80
2019-03-29T10:46:47.565Z,37.60
2019-03-29T10:49:16.698Z,37.50
2019-03-29T10:51:46.826Z,37.50
2019-03-29T10:54:17.416Z,37.40
2019-03-29T10:56:46.630Z,38.00
2019-03-29T10:59:26.751Z,37.00
